sensor_id;sensor_type;location;lat;lon;timestamp;pressure;altitude;pressure_sealevel;temperature;humidity
12195;BME280;27023;42.680;23.132;2022-10-19T00:00:00;92724.41;;;6.81;86.77
12195;BME280;27023;42.680;23.132;2022-10-19T00:02:27;92724.09;;;6.74;85.92
12195;BME280;27023;42.680;23.132;2022-10-19T00:04:53;92736.38;;;6.64;86.80
12195;BME280;27023;42.680;23.132;2022-10-19T00:07:20;92731.75;;;6.61;86.99
12195;BME280;27023;42.680;23.132;2022-10-19T00:09:47;92735.94;;;6.71;86.73
12195;BME280;27023;42.680;23.132;2022-10-19T00:12:13;92727.91;;;6.67;86.06
12195;BME280;27023;42.680;23.132;2022-10-19T00:14:40;92725.16;;;6.73;85.56
12195;BME280;27023;42.680;23.132;2022-10-19T00:17:08;92725.88;;;6.64;84.85
12195;BME280;27023;42.680;23.132;2022-10-19T00:19:35;92721.00;;;6.72;83.67
12195;BME280;27023;42.680;23.132;2022-10-19T00:22:01;92709.88;;;6.66;83.57
12195;BME280;27023;42.680;23.132;2022-10-19T00:24:28;92705.53;;;6.61;87.05
12195;BME280;27023;42.680;23.132;2022-10-19T00:26:55;92705.41;;;6.66;86.81
12195;BME280;27023;42.680;23.132;2022-10-19T00:29:21;92703.75;;;6.71;88.05
12195;BME280;27023;42.680;23.132;2022-10-19T00:31:48;92694.63;;;6.68;87.91
12195;BME280;27023;42.680;23.132;2022-10-19T00:34:16;92691.72;;;6.69;86.80
12195;BME280;27023;42.680;23.132;2022-10-19T00:36:43;92690.75;;;6.65;84.45
12195;BME280;27023;42.680;23.132;2022-10-19T00:39:12;92692.91;;;6.63;86.41
12195;BME280;27023;42.680;23.132;2022-10-19T00:41:40;92684.75;;;6.65;86.39
12195;BME280;27023;42.680;23.132;2022-10-19T00:47:07;92681.81;;;6.58;89.24
12195;BME280;27023;42.680;23.132;2022-10-19T00:49:38;92677.03;;;6.60;88.13
12195;BME280;27023;42.680;23.132;2022-10-19T00:52:09;92672.72;;;6.64;86.58
12195;BME280;27023;42.680;23.132;2022-10-19T00:54:38;92670.09;;;6.55;85.25
12195;BME280;27023;42.680;23.132;2022-10-19T00:57:06;92658.06;;;6.54;85.52
12195;BME280;27023;42.680;23.132;2022-10-19T00:59:34;92658.38;;;6.53;87.91
12195;BME280;27023;42.680;23.132;2022-10-19T01:02:03;92648.38;;;6.55;84.99
12195;BME280;27023;42.680;23.132;2022-10-19T01:04:32;92649.81;;;6.69;87.36
12195;BME280;27023;42.680;23.132;2022-10-19T01:07:02;92653.91;;;6.53;87.22
12195;BME280;27023;42.680;23.132;2022-10-19T01:09:30;92641.59;;;6.62;85.70
12195;BME280;27023;42.680;23.132;2022-10-19T01:12:06;92635.75;;;6.57;83.49
12195;BME280;27023;42.680;23.132;2022-10-19T01:14:44;92621.56;;;6.58;81.90
12195;BME280;27023;42.680;23.132;2022-10-19T01:17:22;92628.03;;;6.60;80.38
12195;BME280;27023;42.680;23.132;2022-10-19T01:20:06;92635.91;;;6.60;80.65
12195;BME280;27023;42.680;23.132;2022-10-19T01:22:55;92628.34;;;6.59;78.33
12195;BME280;27023;42.680;23.132;2022-10-19T01:25:37;92629.78;;;6.74;80.33
12195;BME280;27023;42.680;23.132;2022-10-19T01:28:23;92622.22;;;6.72;75.46
12195;BME280;27023;42.680;23.132;2022-10-19T01:30:58;92620.03;;;6.65;77.22
12195;BME280;27023;42.680;23.132;2022-10-19T01:33:37;92610.63;;;6.64;84.75
12195;BME280;27023;42.680;23.132;2022-10-19T01:36:14;92624.19;;;6.66;85.02
12195;BME280;27023;42.680;23.132;2022-10-19T01:38:50;92610.16;;;6.62;80.93
12195;BME280;27023;42.680;23.132;2022-10-19T01:41:20;92611.25;;;6.61;81.17
12195;BME280;27023;42.680;23.132;2022-10-19T01:43:54;92610.31;;;6.66;81.38
12195;BME280;27023;42.680;23.132;2022-10-19T01:46:28;92604.03;;;6.76;84.68
12195;BME280;27023;42.680;23.132;2022-10-19T01:49:01;92609.75;;;6.78;82.42
12195;BME280;27023;42.680;23.132;2022-10-19T01:51:30;92595.06;;;6.68;84.93
12195;BME280;27023;42.680;23.132;2022-10-19T01:54:03;92602.66;;;6.69;85.76
12195;BME280;27023;42.680;23.132;2022-10-19T01:56:33;92601.88;;;6.69;86.25
12195;BME280;27023;42.680;23.132;2022-10-19T01:59:03;92598.78;;;6.76;83.23
12195;BME280;27023;42.680;23.132;2022-10-19T02:01:34;92593.22;;;6.68;81.90
12195;BME280;27023;42.680;23.132;2022-10-19T02:04:03;92590.59;;;6.68;83.44
12195;BME280;27023;42.680;23.132;2022-10-19T02:06:30;92590.44;;;6.65;83.97
12195;BME280;27023;42.680;23.132;2022-10-19T02:08:57;92594.91;;;6.64;85.01
12195;BME280;27023;42.680;23.132;2022-10-19T02:11:24;92586.63;;;6.80;82.71
12195;BME280;27023;42.680;23.132;2022-10-19T02:13:53;92595.06;;;6.59;82.57
12195;BME280;27023;42.680;23.132;2022-10-19T02:16:25;92588.28;;;6.67;84.54
12195;BME280;27023;42.680;23.132;2022-10-19T02:18:56;92583.34;;;6.65;82.18
12195;BME280;27023;42.680;23.132;2022-10-19T02:21:23;92585.97;;;6.65;81.86
12195;BME280;27023;42.680;23.132;2022-10-19T02:23:50;92583.97;;;6.62;81.77
12195;BME280;27023;42.680;23.132;2022-10-19T02:26:16;92586.13;;;6.60;82.25
12195;BME280;27023;42.680;23.132;2022-10-19T02:28:43;92589.22;;;6.45;85.16
12195;BME280;27023;42.680;23.132;2022-10-19T02:31:10;92594.28;;;6.33;85.94
12195;BME280;27023;42.680;23.132;2022-10-19T02:33:37;92593.34;;;6.29;84.39
12195;BME280;27023;42.680;23.132;2022-10-19T02:36:06;92597.19;;;6.23;87.96
12195;BME280;27023;42.680;23.132;2022-10-19T02:38:33;92593.97;;;6.26;85.28
12195;BME280;27023;42.680;23.132;2022-10-19T02:41:04;92589.03;;;6.24;87.12
12195;BME280;27023;42.680;23.132;2022-10-19T02:43:36;92592.44;;;6.25;86.04
12195;BME280;27023;42.680;23.132;2022-10-19T02:46:07;92591.81;;;6.28;85.58
12195;BME280;27023;42.680;23.132;2022-10-19T02:48:37;92590.84;;;6.07;87.67
12195;BME280;27023;42.680;23.132;2022-10-19T02:51:25;92591.19;;;6.31;87.79
12195;BME280;27023;42.680;23.132;2022-10-19T02:53:52;92599.06;;;6.40;87.80
12195;BME280;27023;42.680;23.132;2022-10-19T02:56:18;92594.28;;;6.33;87.84
12195;BME280;27023;42.680;23.132;2022-10-19T02:58:45;92584.88;;;6.23;89.05
12195;BME280;27023;42.680;23.132;2022-10-19T03:01:12;92586.44;;;6.42;86.18
12195;BME280;27023;42.680;23.132;2022-10-19T03:03:39;92586.44;;;6.33;86.15
12195;BME280;27023;42.680;23.132;2022-10-19T03:06:07;92588.41;;;6.19;84.90
12195;BME280;27023;42.680;23.132;2022-10-19T03:08:34;92587.78;;;6.04;86.74
12195;BME280;27023;42.680;23.132;2022-10-19T03:11:00;92583.75;;;5.98;85.78
12195;BME280;27023;42.680;23.132;2022-10-19T03:13:27;92583.94;;;6.11;88.52
12195;BME280;27023;42.680;23.132;2022-10-19T03:15:54;92579.47;;;6.11;86.73
12195;BME280;27023;42.680;23.132;2022-10-19T03:18:20;92589.78;;;6.08;85.61
12195;BME280;27023;42.680;23.132;2022-10-19T03:20:47;92587.94;;;6.17;84.58
12195;BME280;27023;42.680;23.132;2022-10-19T03:23:15;92586.59;;;5.88;88.06
12195;BME280;27023;42.680;23.132;2022-10-19T03:25:42;92584.75;;;5.89;88.65
12195;BME280;27023;42.680;23.132;2022-10-19T03:28:08;92587.22;;;5.85;92.47
12195;BME280;27023;42.680;23.132;2022-10-19T03:30:35;92575.97;;;5.85;89.67
12195;BME280;27023;42.680;23.132;2022-10-19T03:33:02;92576.63;;;5.90;89.72
12195;BME280;27023;42.680;23.132;2022-10-19T03:35:28;92577.56;;;5.94;86.43
12195;BME280;27023;42.680;23.132;2022-10-19T03:37:55;92576.28;;;5.83;89.69
12195;BME280;27023;42.680;23.132;2022-10-19T03:40:26;92577.66;;;5.81;87.24
12195;BME280;27023;42.680;23.132;2022-10-19T03:42:53;92580.44;;;5.84;88.38
12195;BME280;27023;42.680;23.132;2022-10-19T03:45:19;92584.69;;;5.71;88.60
12195;BME280;27023;42.680;23.132;2022-10-19T03:47:48;92570.09;;;5.70;91.72
12195;BME280;27023;42.680;23.132;2022-10-19T03:50:15;92569.47;;;5.73;92.61
12195;BME280;27023;42.680;23.132;2022-10-19T03:52:42;92568.41;;;5.74;93.25
12195;BME280;27023;42.680;23.132;2022-10-19T03:55:09;92569.34;;;5.79;91.94
12195;BME280;27023;42.680;23.132;2022-10-19T03:57:37;92563.16;;;5.74;89.94
12195;BME280;27023;42.680;23.132;2022-10-19T04:00:04;92569.50;;;5.82;90.70
12195;BME280;27023;42.680;23.132;2022-10-19T04:02:31;92569.47;;;5.73;91.22
12195;BME280;27023;42.680;23.132;2022-10-19T04:04:58;92567.50;;;5.79;90.51
12195;BME280;27023;42.680;23.132;2022-10-19T04:07:24;92557.97;;;5.83;91.13
12195;BME280;27023;42.680;23.132;2022-10-19T04:09:51;92557.81;;;5.88;89.35
12195;BME280;27023;42.680;23.132;2022-10-19T04:12:18;92565.50;;;5.85;90.44
12195;BME280;27023;42.680;23.132;2022-10-19T04:14:46;92556.41;;;5.82;86.98
12195;BME280;27023;42.680;23.132;2022-10-19T04:17:12;92558.44;;;5.85;86.71
12195;BME280;27023;42.680;23.132;2022-10-19T04:19:39;92556.16;;;5.92;89.01
12195;BME280;27023;42.680;23.132;2022-10-19T04:22:06;92544.81;;;5.97;87.77
12195;BME280;27023;42.680;23.132;2022-10-19T04:24:32;92541.44;;;6.05;86.30
12195;BME280;27023;42.680;23.132;2022-10-19T04:27:00;92541.75;;;6.03;83.73
12195;BME280;27023;42.680;23.132;2022-10-19T04:29:26;92546.06;;;6.08;85.31
12195;BME280;27023;42.680;23.132;2022-10-19T04:31:55;92539.75;;;6.18;88.73
12195;BME280;27023;42.680;23.132;2022-10-19T04:34:21;92537.75;;;6.23;89.27
12195;BME280;27023;42.680;23.132;2022-10-19T04:36:48;92539.16;;;6.29;90.39
12195;BME280;27023;42.680;23.132;2022-10-19T04:39:15;92543.31;;;6.39;87.46
12195;BME280;27023;42.680;23.132;2022-10-19T04:41:41;92545.63;;;6.41;86.65
12195;BME280;27023;42.680;23.132;2022-10-19T04:44:08;92542.69;;;6.42;87.04
12195;BME280;27023;42.680;23.132;2022-10-19T04:46:35;92540.06;;;6.42;86.32
12195;BME280;27023;42.680;23.132;2022-10-19T04:49:04;92539.75;;;6.35;85.48
12195;BME280;27023;42.680;23.132;2022-10-19T04:51:31;92538.22;;;6.34;82.63
12195;BME280;27023;42.680;23.132;2022-10-19T04:53:57;92540.38;;;6.49;82.28
12195;BME280;27023;42.680;23.132;2022-10-19T04:56:25;92543.16;;;6.44;83.76
12195;BME280;27023;42.680;23.132;2022-10-19T04:58:56;92538.22;;;6.51;84.83
12195;BME280;27023;42.680;23.132;2022-10-19T05:01:24;92535.28;;;6.53;83.76
12195;BME280;27023;42.680;23.132;2022-10-19T05:03:53;92535.75;;;6.46;80.78
12195;BME280;27023;42.680;23.132;2022-10-19T05:06:22;92532.66;;;6.61;82.42
12195;BME280;27023;42.680;23.132;2022-10-19T05:08:49;92530.22;;;6.56;83.28
12195;BME280;27023;42.680;23.132;2022-10-19T05:11:17;92534.06;;;6.50;82.59
12195;BME280;27023;42.680;23.132;2022-10-19T05:13:44;92531.59;;;6.62;82.34
12195;BME280;27023;42.680;23.132;2022-10-19T05:16:13;92539.78;;;6.69;84.96
12195;BME280;27023;42.680;23.132;2022-10-19T05:18:40;92533.59;;;6.83;82.01
12195;BME280;27023;42.680;23.132;2022-10-19T05:21:08;92530.66;;;6.93;83.70
12195;BME280;27023;42.680;23.132;2022-10-19T05:23:37;92531.56;;;6.97;82.50
12195;BME280;27023;42.680;23.132;2022-10-19T05:26:05;92528.31;;;7.00;83.40
12195;BME280;27023;42.680;23.132;2022-10-19T05:28:32;92531.06;;;7.12;77.02
12195;BME280;27023;42.680;23.132;2022-10-19T05:31:07;92537.22;;;7.16;80.70
12195;BME280;27023;42.680;23.132;2022-10-19T05:33:34;92531.94;;;7.25;77.30
12195;BME280;27023;42.680;23.132;2022-10-19T05:36:12;92523.75;;;7.35;82.05
12195;BME280;27023;42.680;23.132;2022-10-19T05:38:41;92536.97;;;7.47;83.03
12195;BME280;27023;42.680;23.132;2022-10-19T05:41:07;92535.72;;;7.53;82.21
12195;BME280;27023;42.680;23.132;2022-10-19T05:43:34;92528.28;;;7.64;83.10
12195;BME280;27023;42.680;23.132;2022-10-19T05:46:03;92529.81;;;7.65;80.96
12195;BME280;27023;42.680;23.132;2022-10-19T05:48:30;92538.09;;;7.76;80.66
12195;BME280;27023;42.680;23.132;2022-10-19T05:50:59;92539.00;;;7.80;82.56
12195;BME280;27023;42.680;23.132;2022-10-19T05:53:26;92542.84;;;7.82;80.01
12195;BME280;27023;42.680;23.132;2022-10-19T05:55:54;92540.66;;;7.84;79.58
12195;BME280;27023;42.680;23.132;2022-10-19T05:58:21;92543.13;;;7.89;81.75
12195;BME280;27023;42.680;23.132;2022-10-19T06:00:52;92544.78;;;7.94;79.21
12195;BME280;27023;42.680;23.132;2022-10-19T06:03:19;92546.63;;;7.93;78.25
12195;BME280;27023;42.680;23.132;2022-10-19T06:05:46;92542.47;;;7.92;78.38
12195;BME280;27023;42.680;23.132;2022-10-19T06:08:13;92550.81;;;7.94;79.71
12195;BME280;27023;42.680;23.132;2022-10-19T06:10:40;92550.34;;;7.92;77.36
12195;BME280;27023;42.680;23.132;2022-10-19T06:13:08;92551.56;;;7.95;76.95
12195;BME280;27023;42.680;23.132;2022-10-19T06:15:35;92545.91;;;8.14;81.94
12195;BME280;27023;42.680;23.132;2022-10-19T06:18:04;92556.84;;;8.16;80.67
12195;BME280;27023;42.680;23.132;2022-10-19T06:20:44;92566.13;;;8.13;78.15
12195;BME280;27023;42.680;23.132;2022-10-19T06:23:14;92564.59;;;8.12;80.21
12195;BME280;27023;42.680;23.132;2022-10-19T06:25:41;92548.66;;;8.17;81.39
12195;BME280;27023;42.680;23.132;2022-10-19T06:28:09;92566.38;;;8.29;79.94
12195;BME280;27023;42.680;23.132;2022-10-19T06:30:37;92566.28;;;8.46;80.75
12195;BME280;27023;42.680;23.132;2022-10-19T06:33:04;92568.72;;;8.51;80.99
12195;BME280;27023;42.680;23.132;2022-10-19T06:35:31;92567.31;;;8.54;79.29
12195;BME280;27023;42.680;23.132;2022-10-19T06:37:58;92573.47;;;8.58;77.41
12195;BME280;27023;42.680;23.132;2022-10-19T06:40:24;92564.50;;;8.59;80.49
12195;BME280;27023;42.680;23.132;2022-10-19T06:42:53;92563.47;;;8.72;80.03
12195;BME280;27023;42.680;23.132;2022-10-19T06:45:21;92563.84;;;8.83;79.24
12195;BME280;27023;42.680;23.132;2022-10-19T06:47:48;92569.50;;;8.94;78.27
12195;BME280;27023;42.680;23.132;2022-10-19T06:50:15;92555.84;;;9.12;75.94
12195;BME280;27023;42.680;23.132;2022-10-19T06:52:43;92561.81;;;9.34;70.34
12195;BME280;27023;42.680;23.132;2022-10-19T06:55:10;92555.94;;;9.61;73.23
12195;BME280;27023;42.680;23.132;2022-10-19T06:57:37;92552.59;;;9.73;71.05
12195;BME280;27023;42.680;23.132;2022-10-19T07:00:05;92558.19;;;10.08;66.07
12195;BME280;27023;42.680;23.132;2022-10-19T07:02:33;92549.63;;;10.35;65.48
12195;BME280;27023;42.680;23.132;2022-10-19T07:05:00;92548.41;;;10.33;64.70
12195;BME280;27023;42.680;23.132;2022-10-19T07:07:26;92553.56;;;10.54;61.20
12195;BME280;27023;42.680;23.132;2022-10-19T07:09:53;92556.56;;;10.80;60.13
12195;BME280;27023;42.680;23.132;2022-10-19T07:12:20;92550.81;;;10.90;57.55
12195;BME280;27023;42.680;23.132;2022-10-19T07:14:47;92558.09;;;11.09;55.67
12195;BME280;27023;42.680;23.132;2022-10-19T07:17:13;92560.03;;;11.24;57.82
12195;BME280;27023;42.680;23.132;2022-10-19T07:19:41;92557.41;;;11.40;60.69
12195;BME280;27023;42.680;23.132;2022-10-19T07:22:08;92551.28;;;11.52;60.06
12195;BME280;27023;42.680;23.132;2022-10-19T07:24:35;92550.31;;;11.28;59.15
12195;BME280;27023;42.680;23.132;2022-10-19T07:27:02;92555.91;;;11.55;58.11
12195;BME280;27023;42.680;23.132;2022-10-19T07:29:29;92552.22;;;11.43;58.81
12195;BME280;27023;42.680;23.132;2022-10-19T07:31:56;92561.59;;;11.41;58.20
12195;BME280;27023;42.680;23.132;2022-10-19T07:34:23;92560.91;;;11.44;54.90
12195;BME280;27023;42.680;23.132;2022-10-19T07:36:51;92548.66;;;11.67;54.49
12195;BME280;27023;42.680;23.132;2022-10-19T07:39:19;92553.22;;;11.83;53.97
12195;BME280;27023;42.680;23.132;2022-10-19T07:41:46;92541.81;;;11.94;55.93
12195;BME280;27023;42.680;23.132;2022-10-19T07:44:13;92537.78;;;12.16;52.81
12195;BME280;27023;42.680;23.132;2022-10-19T07:46:40;92542.19;;;12.28;54.21
12195;BME280;27023;42.680;23.132;2022-10-19T07:49:10;92537.78;;;12.16;57.56
12195;BME280;27023;42.680;23.132;2022-10-19T07:51:38;92531.53;;;12.24;55.47
12195;BME280;27023;42.680;23.132;2022-10-19T07:54:06;92523.88;;;12.19;55.95
12195;BME280;27023;42.680;23.132;2022-10-19T07:56:34;92524.06;;;12.46;55.18
12195;BME280;27023;42.680;23.132;2022-10-19T07:59:01;92530.72;;;12.39;54.29
12195;BME280;27023;42.680;23.132;2022-10-19T08:01:30;92523.09;;;12.54;54.71
12195;BME280;27023;42.680;23.132;2022-10-19T08:03:58;92526.00;;;12.64;53.47
12195;BME280;27023;42.680;23.132;2022-10-19T08:06:26;92520.91;;;12.75;55.46
12195;BME280;27023;42.680;23.132;2022-10-19T08:08:53;92508.09;;;12.77;56.09
12195;BME280;27023;42.680;23.132;2022-10-19T08:11:35;92511.44;;;12.93;53.85
12195;BME280;27023;42.680;23.132;2022-10-19T08:14:02;92518.09;;;13.07;56.37
12195;BME280;27023;42.680;23.132;2022-10-19T08:16:30;92519.50;;;13.00;55.66
12195;BME280;27023;42.680;23.132;2022-10-19T08:18:59;92519.09;;;13.18;55.19
12195;BME280;27023;42.680;23.132;2022-10-19T08:21:27;92519.22;;;13.25;55.56
12195;BME280;27023;42.680;23.132;2022-10-19T08:23:54;92518.47;;;13.05;56.70
12195;BME280;27023;42.680;23.132;2022-10-19T08:26:21;92515.41;;;13.22;55.71
12195;BME280;27023;42.680;23.132;2022-10-19T08:28:49;92519.72;;;13.30;56.08
12195;BME280;27023;42.680;23.132;2022-10-19T08:31:18;92522.41;;;13.34;54.84
12195;BME280;27023;42.680;23.132;2022-10-19T08:33:45;92514.63;;;13.41;56.30
12195;BME280;27023;42.680;23.132;2022-10-19T08:36:12;92513.22;;;13.47;56.44
12195;BME280;27023;42.680;23.132;2022-10-19T08:38:40;92510.63;;;13.51;54.73
12195;BME280;27023;42.680;23.132;2022-10-19T08:41:21;92505.41;;;13.54;54.80
12195;BME280;27023;42.680;23.132;2022-10-19T08:44:10;92503.16;;;13.56;56.18
12195;BME280;27023;42.680;23.132;2022-10-19T08:46:50;92502.16;;;13.64;55.62
12195;BME280;27023;42.680;23.132;2022-10-19T08:49:23;92510.09;;;13.64;53.04
12195;BME280;27023;42.680;23.132;2022-10-19T08:51:54;92510.63;;;13.74;53.23
12195;BME280;27023;42.680;23.132;2022-10-19T08:54:21;92505.44;;;13.81;53.44
12195;BME280;27023;42.680;23.132;2022-10-19T08:56:59;92505.22;;;13.66;53.52
12195;BME280;27023;42.680;23.132;2022-10-19T08:59:37;92501.06;;;13.92;55.03
12195;BME280;27023;42.680;23.132;2022-10-19T09:02:13;92502.69;;;14.00;53.87
12195;BME280;27023;42.680;23.132;2022-10-19T09:04:46;92502.00;;;14.03;53.40
12195;BME280;27023;42.680;23.132;2022-10-19T09:07:22;92503.94;;;14.06;53.32
12195;BME280;27023;42.680;23.132;2022-10-19T09:09:54;92504.94;;;13.98;55.29
12195;BME280;27023;42.680;23.132;2022-10-19T09:12:30;92503.38;;;13.71;52.95
12195;BME280;27023;42.680;23.132;2022-10-19T09:15:03;92499.91;;;13.89;51.91
12195;BME280;27023;42.680;23.132;2022-10-19T09:17:30;92505.09;;;14.09;51.39
12195;BME280;27023;42.680;23.132;2022-10-19T09:20:01;92503.03;;;14.21;51.69
12195;BME280;27023;42.680;23.132;2022-10-19T09:22:36;92502.84;;;14.11;54.20
12195;BME280;27023;42.680;23.132;2022-10-19T09:25:12;92509.91;;;14.26;49.74
12195;BME280;27023;42.680;23.132;2022-10-19T09:27:40;92498.28;;;14.34;52.70
12195;BME280;27023;42.680;23.132;2022-10-19T09:30:16;92495.41;;;14.43;49.55
12195;BME280;27023;42.680;23.132;2022-10-19T09:32:43;92499.78;;;14.31;52.18
12195;BME280;27023;42.680;23.132;2022-10-19T09:35:19;92501.19;;;14.25;51.12
12195;BME280;27023;42.680;23.132;2022-10-19T09:37:49;92508.22;;;14.41;51.90
12195;BME280;27023;42.680;23.132;2022-10-19T09:40:18;92498.06;;;14.43;49.00
12195;BME280;27023;42.680;23.132;2022-10-19T09:42:45;92490.66;;;14.29;51.58
12195;BME280;27023;42.680;23.132;2022-10-19T09:45:27;92497.53;;;14.60;50.17
12195;BME280;27023;42.680;23.132;2022-10-19T09:47:55;92498.47;;;14.75;49.43
12195;BME280;27023;42.680;23.132;2022-10-19T09:50:22;92492.84;;;14.80;48.53
12195;BME280;27023;42.680;23.132;2022-10-19T09:52:50;92495.03;;;14.74;50.45
12195;BME280;27023;42.680;23.132;2022-10-19T09:55:33;92498.56;;;14.52;53.76
12195;BME280;27023;42.680;23.132;2022-10-19T09:58:04;92492.13;;;14.26;50.78
12195;BME280;27023;42.680;23.132;2022-10-19T10:00:36;92488.16;;;14.70;48.71
12195;BME280;27023;42.680;23.132;2022-10-19T10:03:05;92490.72;;;14.92;50.04
12195;BME280;27023;42.680;23.132;2022-10-19T10:05:34;92486.00;;;14.79;50.63
12195;BME280;27023;42.680;23.132;2022-10-19T10:08:02;92480.31;;;14.80;46.69
12195;BME280;27023;42.680;23.132;2022-10-19T10:10:34;92475.53;;;14.89;43.23
12195;BME280;27023;42.680;23.132;2022-10-19T10:13:02;92465.50;;;15.09;42.79
12195;BME280;27023;42.680;23.132;2022-10-19T10:15:43;92469.50;;;14.92;46.47
12195;BME280;27023;42.680;23.132;2022-10-19T10:18:13;92464.41;;;15.14;44.65
12195;BME280;27023;42.680;23.132;2022-10-19T10:20:56;92459.25;;;15.28;45.04
12195;BME280;27023;42.680;23.132;2022-10-19T10:23:25;92452.47;;;15.34;46.38
12195;BME280;27023;42.680;23.132;2022-10-19T10:25:54;92451.75;;;15.37;45.05
12195;BME280;27023;42.680;23.132;2022-10-19T10:28:22;92441.56;;;15.06;47.88
12195;BME280;27023;42.680;23.132;2022-10-19T10:30:57;92443.97;;;15.18;47.63
12195;BME280;27023;42.680;23.132;2022-10-19T10:33:26;92446.63;;;15.18;50.05
12195;BME280;27023;42.680;23.132;2022-10-19T10:35:56;92433.47;;;15.32;48.85
12195;BME280;27023;42.680;23.132;2022-10-19T10:38:30;92432.06;;;15.45;46.72
12195;BME280;27023;42.680;23.132;2022-10-19T10:40:59;92434.78;;;15.52;45.87
12195;BME280;27023;42.680;23.132;2022-10-19T10:43:30;92426.16;;;15.59;43.13
12195;BME280;27023;42.680;23.132;2022-10-19T10:46:03;92418.53;;;15.57;43.35
12195;BME280;27023;42.680;23.132;2022-10-19T10:48:36;92420.94;;;15.70;41.84
12195;BME280;27023;42.680;23.132;2022-10-19T10:51:10;92416.81;;;15.79;41.39
12195;BME280;27023;42.680;23.132;2022-10-19T10:53:45;92400.88;;;15.79;41.38
12195;BME280;27023;42.680;23.132;2022-10-19T10:56:22;92407.78;;;15.91;40.88
12195;BME280;27023;42.680;23.132;2022-10-19T10:58:55;92402.50;;;15.95;41.32
12195;BME280;27023;42.680;23.132;2022-10-19T11:01:28;92398.16;;;16.34;39.75
12195;BME280;27023;42.680;23.132;2022-10-19T11:04:05;92395.84;;;17.62;39.69
12195;BME280;27023;42.680;23.132;2022-10-19T11:06:40;92389.00;;;17.83;39.02
12195;BME280;27023;42.680;23.132;2022-10-19T11:09:13;92394.28;;;17.11;39.31
12195;BME280;27023;42.680;23.132;2022-10-19T11:11:50;92386.69;;;17.21;38.90
12195;BME280;27023;42.680;23.132;2022-10-19T11:14:30;92380.59;;;17.20;39.71
12195;BME280;27023;42.680;23.132;2022-10-19T11:17:04;92369.75;;;16.52;45.39
12195;BME280;27023;42.680;23.132;2022-10-19T11:19:34;92381.88;;;16.46;44.23
12195;BME280;27023;42.680;23.132;2022-10-19T11:22:08;92380.34;;;16.45;40.70
12195;BME280;27023;42.680;23.132;2022-10-19T11:24:44;92377.34;;;16.54;39.30
12195;BME280;27023;42.680;23.132;2022-10-19T11:27:20;92371.25;;;16.50;39.00
12195;BME280;27023;42.680;23.132;2022-10-19T11:30:00;92369.00;;;16.56;38.81
12195;BME280;27023;42.680;23.132;2022-10-19T11:32:36;92381.19;;;16.64;40.35
12195;BME280;27023;42.680;23.132;2022-10-19T11:35:16;92368.69;;;16.68;37.24
12195;BME280;27023;42.680;23.132;2022-10-19T11:37:52;92364.50;;;16.70;37.76
12195;BME280;27023;42.680;23.132;2022-10-19T11:40:27;92364.91;;;16.79;36.79
12195;BME280;27023;42.680;23.132;2022-10-19T11:43:00;92359.22;;;16.84;36.30
12195;BME280;27023;42.680;23.132;2022-10-19T11:45:42;92349.31;;;16.81;39.01
12195;BME280;27023;42.680;23.132;2022-10-19T11:48:26;92357.97;;;16.53;39.44
12195;BME280;27023;42.680;23.132;2022-10-19T11:51:00;92350.81;;;16.75;38.24
12195;BME280;27023;42.680;23.132;2022-10-19T11:53:34;92353.88;;;16.84;38.88
12195;BME280;27023;42.680;23.132;2022-10-19T11:56:09;92332.59;;;16.88;37.18
12195;BME280;27023;42.680;23.132;2022-10-19T11:58:51;92333.38;;;16.99;37.05
12195;BME280;27023;42.680;23.132;2022-10-19T12:01:30;92331.84;;;17.09;36.04
12195;BME280;27023;42.680;23.132;2022-10-19T12:04:37;92337.94;;;17.02;36.52
12195;BME280;27023;42.680;23.132;2022-10-19T12:07:19;92339.44;;;16.93;38.55
12195;BME280;27023;42.680;23.132;2022-10-19T12:09:56;92339.44;;;16.96;37.55
12195;BME280;27023;42.680;23.132;2022-10-19T12:12:30;92337.97;;;17.13;37.98
12195;BME280;27023;42.680;23.132;2022-10-19T12:15:11;92337.59;;;17.18;37.46
12195;BME280;27023;42.680;23.132;2022-10-19T12:17:44;92337.97;;;17.13;37.08
12195;BME280;27023;42.680;23.132;2022-10-19T12:20:20;92344.78;;;17.03;38.16
12195;BME280;27023;42.680;23.132;2022-10-19T12:22:48;92338.34;;;17.15;37.76
12195;BME280;27023;42.680;23.132;2022-10-19T12:25:16;92340.25;;;17.18;38.14
12195;BME280;27023;42.680;23.132;2022-10-19T12:27:45;92345.53;;;16.97;37.26
12195;BME280;27023;42.680;23.132;2022-10-19T12:30:15;92338.34;;;17.22;38.36
12195;BME280;27023;42.680;23.132;2022-10-19T12:32:51;92329.59;;;17.29;37.80
12195;BME280;27023;42.680;23.132;2022-10-19T12:35:37;92325.81;;;17.12;38.31
12195;BME280;27023;42.680;23.132;2022-10-19T12:38:08;92341.03;;;17.29;39.16
12195;BME280;27023;42.680;23.132;2022-10-19T12:40:39;92328.09;;;17.31;38.52
12195;BME280;27023;42.680;23.132;2022-10-19T12:43:13;92320.09;;;17.17;39.91
12195;BME280;27023;42.680;23.132;2022-10-19T12:45:48;92323.53;;;17.21;40.73
12195;BME280;27023;42.680;23.132;2022-10-19T12:48:21;92326.56;;;17.16;40.06
12195;BME280;27023;42.680;23.132;2022-10-19T12:51:13;92320.47;;;17.19;41.28
12195;BME280;27023;42.680;23.132;2022-10-19T12:53:43;92331.88;;;17.30;40.26
12195;BME280;27023;42.680;23.132;2022-10-19T12:56:16;92324.28;;;17.39;39.58
12195;BME280;27023;42.680;23.132;2022-10-19T12:58:48;92326.56;;;17.44;40.06
12195;BME280;27023;42.680;23.132;2022-10-19T13:01:19;92326.94;;;17.11;40.97
12195;BME280;27023;42.680;23.132;2022-10-19T13:03:50;92324.28;;;17.32;41.48
12195;BME280;27023;42.680;23.132;2022-10-19T13:06:30;92326.94;;;17.36;42.45
12195;BME280;27023;42.680;23.132;2022-10-19T13:09:00;92328.84;;;17.32;44.59
12195;BME280;27023;42.680;23.132;2022-10-19T13:11:28;92316.66;;;17.45;43.10
12195;BME280;27023;42.680;23.132;2022-10-19T13:14:00;92320.47;;;17.40;43.27